Time;durP1;ratioP1;P1;durP2;ratioP2;P2;SDS_P1;SDS_P2;PMS_P1;PMS_P2;Temp;Humidity;BMP_temperature;BMP_pressure;BME280_temperature;BME280_humidity;BME280_pressure;Samples;Min_cycle;Max_cycle;Signal;HPM_P1;HPM_P2
2022/10/07 00:01:30;;;;;;;;;;;;;;;16.46;63.92;102059.75;4975347;28;119822;-71
2022/10/07 00:03:55;;;;;;;;;;;;;;;16.46;63.55;102051.44;4975804;28;119858;-71
2022/10/07 00:06:21;;;;;;;;;;;;;;;16.47;63.62;102050.19;4980912;28;119464;-71
2022/10/07 00:08:48;;;;;;;;;;;;;;;16.45;63.52;102052.66;4984153;28;119694;-74
2022/10/07 00:11:21;;;;;;;;;;;;;;;16.43;63.42;102046.81;4984471;28;122375;-71
2022/10/07 00:13:48;;;;;;;;;;;;;;;16.41;63.44;102043.72;4987977;28;119878;-71
2022/10/07 00:16:19;;;;;;;;;;;;;;;16.37;63.39;102040.34;4981759;28;120043;-71
2022/10/07 00:18:45;;;;;;;;;;;;;;;16.35;63.42;102037.25;4986903;28;119623;-71
2022/10/07 00:21:14;;;;;;;;;;;;;;;16.33;63.75;102025.88;4984785;28;119870;-70
2022/10/07 00:23:48;;;;;;;;;;;;;;;16.31;63.39;102038.63;4974688;28;119425;-71
2022/10/07 00:26:21;;;;;;;;;;;;;;;16.28;63.53;102026.47;4983746;28;119503;-71
2022/10/07 00:28:47;;;;;;;;;;;;;;;16.26;63.42;102023.38;4958205;28;119590;-71
2022/10/07 00:31:14;;;;;;;;;;;;;;;16.25;63.37;102021.84;4976854;28;119136;-71
2022/10/07 00:33:40;;;;;;;;;;;;;;;16.23;63.54;102024.28;4963194;28;120202;-71
2022/10/07 00:36:07;;;;;;;;;;;;;;;16.21;63.52;102023.97;4980272;28;119649;-71
2022/10/07 00:38:32;;;;;;;;;;;;;;;16.18;63.32;102022.91;4980290;28;119445;-71
2022/10/07 00:40:58;;;;;;;;;;;;;;;16.16;63.51;102013.50;4984516;28;119614;-71
2022/10/07 00:43:30;;;;;;;;;;;;;;;16.13;63.40;102009.66;4981792;28;119482;-70
2022/10/07 00:45:59;;;;;;;;;;;;;;;16.12;63.66;102005.34;4973094;27;120087;-71
2022/10/07 00:48:26;;;;;;;;;;;;;;;16.11;63.44;102000.28;4976780;28;119791;-71
2022/10/07 00:50:55;;;;;;;;;;;;;;;16.10;63.46;101998.75;4979541;28;119581;-71
2022/10/07 00:53:21;;;;;;;;;;;;;;;16.08;63.66;102003.94;4979593;28;120322;-71
2022/10/07 00:55:47;;;;;;;;;;;;;;;16.05;63.34;101991.78;4981679;28;120373;-71
2022/10/07 00:58:13;;;;;;;;;;;;;;;16.05;63.67;102002.09;4972482;28;119906;-71
2022/10/07 01:00:39;;;;;;;;;;;;;;;16.02;63.36;101992.69;4986229;28;119741;-71
2022/10/07 01:03:04;;;;;;;;;;;;;;;16.01;63.48;101993.16;4980415;28;119846;-71
2022/10/07 01:05:31;;;;;;;;;;;;;;;15.99;63.62;101988.09;4979921;28;119991;-71
2022/10/07 01:07:57;;;;;;;;;;;;;;;15.98;63.69;101991.31;4975474;28;119808;-71
2022/10/07 01:10:27;;;;;;;;;;;;;;;15.97;63.66;101993.31;4978905;28;119808;-71
2022/10/07 01:13:04;;;;;;;;;;;;;;;15.95;63.69;101981.91;4983084;28;120511;-71
2022/10/07 01:15:34;;;;;;;;;;;;;;;15.92;63.87;101978.06;4986078;28;120488;-71
2022/10/07 01:18:25;;;;;;;;;;;;;;;15.89;63.62;101979.00;4993974;27;121146;-71
2022/10/07 01:21:12;;;;;;;;;;;;;;;15.87;64.02;101970.38;4981744;28;120081;-70
2022/10/07 01:23:47;;;;;;;;;;;;;;;15.87;63.81;101966.84;4970477;28;121244;-71
2022/10/07 01:26:31;;;;;;;;;;;;;;;15.83;63.94;101961.41;4980781;28;119795;-71
2022/10/07 01:29:00;;;;;;;;;;;;;;;15.80;64.01;101954.03;4983283;28;119911;-71
2022/10/07 01:31:28;;;;;;;;;;;;;;;15.78;63.77;101950.97;4978538;28;120095;-71
2022/10/07 01:33:53;;;;;;;;;;;;;;;15.77;63.72;101948.66;4984594;28;119882;-70
2022/10/07 01:36:23;;;;;;;;;;;;;;;15.73;64.05;101943.25;4976976;28;120483;-71
2022/10/07 01:38:51;;;;;;;;;;;;;;;15.70;63.94;101948.94;4988994;28;119553;-71
2022/10/07 01:41:20;;;;;;;;;;;;;;;15.64;63.85;101937.72;4976039;28;119450;-71
2022/10/07 01:43:46;;;;;;;;;;;;;;;15.60;64.23;101934.28;4987420;28;119950;-71
2022/10/07 01:46:14;;;;;;;;;;;;;;;15.58;64.22;101940.28;4986962;28;120013;-71
2022/10/07 01:48:40;;;;;;;;;;;;;;;15.55;64.03;101937.63;4987882;28;119822;-71
2022/10/07 01:51:08;;;;;;;;;;;;;;;15.52;64.41;101935.75;4983690;28;119573;-71
2022/10/07 01:53:39;;;;;;;;;;;;;;;15.48;64.19;101926.84;4977446;28;120141;-71
2022/10/07 01:56:07;;;;;;;;;;;;;;;15.44;64.07;101921.44;4980080;28;119955;-70
2022/10/07 01:58:52;;;;;;;;;;;;;;;15.41;64.17;101932.66;4963209;28;120290;-71
2022/10/07 02:01:36;;;;;;;;;;;;;;;15.35;64.07;101918.63;4978678;28;119875;-71
2022/10/07 02:04:11;;;;;;;;;;;;;;;15.33;64.46;101918.31;4971848;28;119438;-71
2022/10/07 02:06:41;;;;;;;;;;;;;;;15.29;64.26;101918.44;4978790;28;119963;-71
2022/10/07 02:09:31;;;;;;;;;;;;;;;15.26;64.44;101911.06;4982219;28;119662;-71
2022/10/07 02:12:02;;;;;;;;;;;;;;;15.22;64.29;101910.44;4980123;28;120000;-71
2022/10/07 02:14:43;;;;;;;;;;;;;;;15.20;64.67;101907.34;4966455;28;120258;-71
2022/10/07 02:17:13;;;;;;;;;;;;;;;15.15;64.24;101896.91;4972870;28;120035;-71
2022/10/07 02:19:43;;;;;;;;;;;;;;;15.11;64.39;101899.00;4987315;28;119891;-71
2022/10/07 02:22:12;;;;;;;;;;;;;;;15.08;64.38;101893.59;4977318;28;120971;-71
2022/10/07 02:24:39;;;;;;;;;;;;;;;15.04;64.73;101890.97;4977582;28;119787;-72
2022/10/07 02:27:09;;;;;;;;;;;;;;;15.01;64.53;101884.38;5001386;27;119819;-71
2022/10/07 02:29:38;;;;;;;;;;;;;;;15.00;64.41;101885.59;4996620;28;119832;-70
2022/10/07 02:32:07;;;;;;;;;;;;;;;14.98;64.67;101876.22;4987603;28;119873;-71
2022/10/07 02:34:35;;;;;;;;;;;;;;;14.95;64.55;101868.84;4971563;28;119873;-71
2022/10/07 02:37:04;;;;;;;;;;;;;;;14.93;64.77;101876.81;4968191;28;119616;-70
2022/10/07 02:39:32;;;;;;;;;;;;;;;14.92;64.72;101867.75;4982662;28;119986;-71
2022/10/07 02:42:24;;;;;;;;;;;;;;;14.93;64.98;101868.53;4973896;28;119819;-71
2022/10/07 02:44:50;;;;;;;;;;;;;;;14.91;65.16;101865.44;4978038;28;119896;-70
2022/10/07 02:47:23;;;;;;;;;;;;;;;14.91;64.62;101865.44;4969835;28;120310;-70
2022/10/07 02:49:52;;;;;;;;;;;;;;;14.90;64.79;101852.81;4981469;28;120004;-70
2022/10/07 02:52:24;;;;;;;;;;;;;;;14.90;64.58;101855.59;4989232;28;119566;-70
2022/10/07 02:54:53;;;;;;;;;;;;;;;14.87;65.14;101846.22;4977115;28;120256;-71
2022/10/07 02:57:20;;;;;;;;;;;;;;;14.87;65.10;101846.22;4982185;28;120101;-71
2022/10/07 02:59:48;;;;;;;;;;;;;;;14.87;64.91;101853.72;4976981;28;119759;-70
2022/10/07 03:02:18;;;;;;;;;;;;;;;14.87;64.89;101848.22;4968436;28;120007;-70
2022/10/07 03:04:44;;;;;;;;;;;;;;;14.86;65.14;101843.91;4977557;28;119886;-71
2022/10/07 03:07:11;;;;;;;;;;;;;;;14.83;65.13;101842.81;4985833;28;119940;-71
2022/10/07 03:09:36;;;;;;;;;;;;;;;14.83;64.87;101845.59;5005002;27;119746;-70
2022/10/07 03:12:02;;;;;;;;;;;;;;;14.82;64.88;101838.53;4986384;27;119971;-71
2022/10/07 03:14:29;;;;;;;;;;;;;;;14.82;64.88;101835.00;4983525;28;120232;-70
2022/10/07 03:16:55;;;;;;;;;;;;;;;14.79;64.84;101838.66;4972033;28;119821;-71
2022/10/07 03:19:21;;;;;;;;;;;;;;;14.79;64.60;101838.66;4984618;28;119790;-71
2022/10/07 03:21:54;;;;;;;;;;;;;;;14.80;64.68;101834.66;4979947;28;119555;-71
2022/10/07 03:24:19;;;;;;;;;;;;;;;14.76;64.68;101834.81;4978392;28;119876;-70
2022/10/07 03:26:47;;;;;;;;;;;;;;;14.74;64.65;101826.97;4978825;28;119573;-70
2022/10/07 03:29:13;;;;;;;;;;;;;;;14.73;65.15;101824.66;4992653;28;119677;-70
2022/10/07 03:31:41;;;;;;;;;;;;;;;14.71;64.60;101830.63;4989799;28;120297;-70
2022/10/07 03:34:07;;;;;;;;;;;;;;;14.70;64.98;101831.09;4972319;28;119355;-70
2022/10/07 03:36:33;;;;;;;;;;;;;;;14.69;64.87;101827.56;4986664;28;119585;-70
2022/10/07 03:38:59;;;;;;;;;;;;;;;14.67;65.06;101821.72;4969197;28;120180;-70
2022/10/07 03:41:25;;;;;;;;;;;;;;;14.69;64.99;101818.50;4984532;28;119770;-70
2022/10/07 03:44:10;;;;;;;;;;;;;;;14.68;65.19;101814.19;4981004;28;119846;-70
2022/10/07 03:46:36;;;;;;;;;;;;;;;14.68;65.48;101814.19;4975476;28;119465;-70
2022/10/07 03:49:02;;;;;;;;;;;;;;;14.68;65.09;101814.97;4975243;28;119438;-71
2022/10/07 03:51:28;;;;;;;;;;;;;;;14.67;65.17;101807.91;4990838;28;119434;-70
2022/10/07 03:53:56;;;;;;;;;;;;;;;14.67;65.39;101802.38;5002650;28;119889;-70
2022/10/07 03:56:22;;;;;;;;;;;;;;;14.67;65.56;101798.84;4996267;27;119964;-70
2022/10/07 03:58:48;;;;;;;;;;;;;;;14.64;65.33;101794.97;5003486;27;119562;-70
2022/10/07 04:01:14;;;;;;;;;;;;;;;14.66;65.49;101797.28;4970893;28;120623;-70
2022/10/07 04:03:46;;;;;;;;;;;;;;;14.64;65.13;101781.19;4984691;28;119934;-70
2022/10/07 04:06:12;;;;;;;;;;;;;;;14.64;65.63;101783.94;4980467;28;119947;-70
2022/10/07 04:08:39;;;;;;;;;;;;;;;14.64;65.57;101786.69;4987366;28;120398;-70
2022/10/07 04:11:32;;;;;;;;;;;;;;;14.62;65.08;101783.63;4953814;28;119765;-70
2022/10/07 04:13:59;;;;;;;;;;;;;;;14.62;65.44;101780.09;4979451;28;120371;-70
2022/10/07 04:16:26;;;;;;;;;;;;;;;14.62;65.46;101786.38;4970049;28;120047;-70
2022/10/07 04:18:55;;;;;;;;;;;;;;;14.61;65.43;101779.31;4982961;28;120030;-70
2022/10/07 04:21:22;;;;;;;;;;;;;;;14.60;65.09;101786.06;4976694;28;119826;-70
2022/10/07 04:23:47;;;;;;;;;;;;;;;14.59;65.75;101781.75;4972223;28;119555;-71
2022/10/07 04:26:13;;;;;;;;;;;;;;;14.58;65.23;101774.72;4975079;28;119414;-70
2022/10/07 04:28:47;;;;;;;;;;;;;;;14.56;65.38;101777.16;4982689;28;119294;-70
2022/10/07 04:31:18;;;;;;;;;;;;;;;14.56;65.40;101777.16;4976727;28;119831;-70
2022/10/07 04:33:48;;;;;;;;;;;;;;;14.52;65.17;101768.22;4970729;28;119932;-70
2022/10/07 04:36:19;;;;;;;;;;;;;;;14.51;65.49;101769.47;4994867;28;119931;-70
2022/10/07 04:38:54;;;;;;;;;;;;;;;14.52;65.12;101759.19;4945880;28;120637;-70
2022/10/07 04:41:24;;;;;;;;;;;;;;;14.40;65.23;101749.72;4976650;28;120410;-70
2022/10/07 04:43:51;;;;;;;;;;;;;;;14.49;65.39;101765.59;4980769;28;119823;-70
2022/10/07 04:46:17;;;;;;;;;;;;;;;14.48;65.64;101759.31;4976517;28;119482;-70
2022/10/07 04:48:50;;;;;;;;;;;;;;;14.47;65.33;101763.31;4984067;28;120377;-70
2022/10/07 04:51:21;;;;;;;;;;;;;;;14.46;65.10;101761.75;4986964;28;119709;-70
2022/10/07 04:53:52;;;;;;;;;;;;;;;14.43;65.25;101757.13;4987608;28;119559;-70
2022/10/07 04:56:21;;;;;;;;;;;;;;;14.41;65.40;101749.25;4996656;28;119476;-70
2022/10/07 04:58:47;;;;;;;;;;;;;;;14.40;65.48;101744.97;4969251;28;121069;-70
2022/10/07 05:01:13;;;;;;;;;;;;;;;14.40;65.72;101742.19;4979366;28;120136;-70
2022/10/07 05:03:42;;;;;;;;;;;;;;;14.39;65.43;101745.41;4981031;28;120380;-70
2022/10/07 05:06:09;;;;;;;;;;;;;;;14.38;65.62;101744.66;4981631;28;119680;-70
2022/10/07 05:08:37;;;;;;;;;;;;;;;14.40;65.39;101744.19;4981379;28;119278;-70
2022/10/07 05:11:04;;;;;;;;;;;;;;;14.40;65.22;101746.94;4979669;28;119898;-70
2022/10/07 05:13:37;;;;;;;;;;;;;;;14.40;65.42;101741.44;4962228;28;120518;-69
2022/10/07 05:16:02;;;;;;;;;;;;;;;14.38;65.32;101738.34;4983810;28;120071;-70
2022/10/07 05:18:29;;;;;;;;;;;;;;;14.37;65.59;101736.81;4963224;28;119925;-70
2022/10/07 05:20:57;;;;;;;;;;;;;;;14.34;65.16;101740.47;4986799;28;119734;-70
2022/10/07 05:23:25;;;;;;;;;;;;;;;14.31;64.86;101742.16;4979558;28;119857;-70
2022/10/07 05:26:03;;;;;;;;;;;;;;;14.29;65.43;101730.03;4963299;28;120454;-70
2022/10/07 05:28:32;;;;;;;;;;;;;;;14.27;65.06;101726.94;4965215;28;121220;-70
2022/10/07 05:31:16;;;;;;;;;;;;;;;14.25;65.05;101727.41;4971499;28;120109;-70
2022/10/07 05:33:48;;;;;;;;;;;;;;;14.22;64.93;101727.53;4984073;28;119238;-70
2022/10/07 05:36:14;;;;;;;;;;;;;;;14.18;65.05;101727.66;4969129;28;119839;-70
2022/10/07 05:38:41;;;;;;;;;;;;;;;14.13;64.76;101729.00;4980594;28;119429;-70
2022/10/07 05:41:08;;;;;;;;;;;;;;;14.12;64.59;101718.41;4977646;28;119628;-70
2022/10/07 05:43:39;;;;;;;;;;;;;;;14.09;64.80;101717.31;4983588;28;119762;-70
2022/10/07 05:46:24;;;;;;;;;;;;;;;14.04;65.18;101715.16;4991714;27;119955;-71
2022/10/07 05:48:54;;;;;;;;;;;;;;;14.02;64.75;101714.84;4977487;28;119935;-70
2022/10/07 05:51:23;;;;;;;;;;;;;;;14.02;64.75;101711.31;4985354;28;119609;-70
2022/10/07 05:53:56;;;;;;;;;;;;;;;14.03;65.13;101710.84;4983887;28;119566;-70
2022/10/07 05:56:25;;;;;;;;;;;;;;;14.03;65.00;101713.59;4978107;28;120609;-70
2022/10/07 05:58:54;;;;;;;;;;;;;;;14.02;65.20;101706.56;4974954;28;120264;-70
2022/10/07 06:01:21;;;;;;;;;;;;;;;14.04;65.07;101706.88;4981766;28;120276;-71
2022/10/07 06:03:48;;;;;;;;;;;;;;;14.05;65.36;101702.91;4978480;28;119430;-70
2022/10/07 06:06:14;;;;;;;;;;;;;;;14.09;65.16;101700.78;4980721;28;119961;-70
2022/10/07 06:08:40;;;;;;;;;;;;;;;14.10;65.09;101691.28;4961741;28;122870;-71
2022/10/07 06:13:52;;;;;;;;;;;;;;;14.13;64.84;101687.59;4980808;28;119706;-70
2022/10/07 06:16:18;;;;;;;;;;;;;;;14.16;64.85;101687.94;4977990;28;120109;-70
2022/10/07 06:18:46;;;;;;;;;;;;;;;14.17;64.80;101683.94;4979057;28;120106;-70
2022/10/07 06:21:12;;;;;;;;;;;;;;;14.19;64.68;101687.78;4984478;28;120144;-70
2022/10/07 06:23:38;;;;;;;;;;;;;;;14.22;65.20;101681.41;4980963;28;119442;-70
2022/10/07 06:26:05;;;;;;;;;;;;;;;14.27;65.03;101688.31;4993924;28;120002;-70
2022/10/07 06:28:36;;;;;;;;;;;;;;;14.30;64.96;101687.41;4961216;28;122630;-70
2022/10/07 06:31:06;;;;;;;;;;;;;;;14.33;64.61;101680.97;4977570;28;120701;-70
2022/10/07 06:33:33;;;;;;;;;;;;;;;14.34;64.85;101686.03;4983384;28;119936;-70
2022/10/07 06:36:03;;;;;;;;;;;;;;;14.37;64.65;101681.63;4979646;28;120330;-70
2022/10/07 06:38:29;;;;;;;;;;;;;;;14.41;64.66;101682.25;4977160;28;119505;-70
2022/10/07 06:41:13;;;;;;;;;;;;;;;14.41;64.51;101680.25;4973532;28;119848;-70
2022/10/07 06:43:39;;;;;;;;;;;;;;;14.42;64.62;101673.50;4980260;28;119820;-70
2022/10/07 06:46:15;;;;;;;;;;;;;;;14.42;64.43;101681.78;4985602;28;120159;-70
2022/10/07 06:48:41;;;;;;;;;;;;;;;14.45;64.40;101679.41;4982230;28;122400;-70
2022/10/07 06:51:14;;;;;;;;;;;;;;;14.48;64.19;101686.78;4980174;28;123099;-70
2022/10/07 06:53:40;;;;;;;;;;;;;;;14.51;64.25;101689.41;4982914;28;119513;-70
2022/10/07 06:56:06;;;;;;;;;;;;;;;14.53;64.08;101684.19;4980965;28;120308;-70
2022/10/07 06:58:34;;;;;;;;;;;;;;;14.55;64.16;101678.97;4958877;28;119480;-70
2022/10/07 07:01:02;;;;;;;;;;;;;;;14.58;64.35;101677.28;4975035;28;119783;-70
2022/10/07 07:03:43;;;;;;;;;;;;;;;;;;;;;
2022/10/07 07:06:26;;;;;;;;;;;;;;;;;;;;;
2022/10/07 07:09:41;;;;;;;;;;;;;;;14.68;64.05;101684.41;4970475;28;119478;-95
2022/10/07 07:13:09;;;;;;;;;;;;;;;14.73;64.37;101690.09;4950199;28;118641;-94
2022/10/07 07:16:30;;;;;;;;;;;;;;;14.77;64.05;101689.19;4973975;28;119521;-94
2022/10/07 07:19:14;;;;;;;;;;;;;;;14.81;63.88;101687.06;4962238;28;122194;-94
2022/10/07 07:22:09;;;;;;;;;;;;;;;14.85;63.91;101690.44;4974547;28;120701;-94
2022/10/07 07:27:54;;;;;;;;;;;;;;;14.94;63.87;101688.50;5000267;27;119612;-72
2022/10/07 07:30:22;;;;;;;;;;;;;;;14.99;63.73;101689.88;5016771;27;119636;-72
2022/10/07 07:32:49;;;;;;;;;;;;;;;15.02;63.68;101692.50;4985368;28;120151;-71
2022/10/07 07:35:15;;;;;;;;;;;;;;;15.08;63.73;101683.59;4989098;27;119486;-71
2022/10/07 07:37:41;;;;;;;;;;;;;;;15.10;63.10;101690.19;4996829;27;119922;-72
2022/10/07 07:40:07;;;;;;;;;;;;;;;15.14;63.47;101679.78;4995772;27;120607;-72
2022/10/07 07:42:34;;;;;;;;;;;;;;;15.17;63.58;101672.56;5002965;27;119968;-72
2022/10/07 07:45:03;;;;;;;;;;;;;;;15.22;63.50;101661.69;5006332;27;119701;-72
2022/10/07 07:47:30;;;;;;;;;;;;;;;15.30;63.93;101662.13;4999025;27;120293;-72
2022/10/07 07:49:56;;;;;;;;;;;;;;;15.39;64.01;101658.63;5002926;27;119965;-72
2022/10/07 07:52:28;;;;;;;;;;;;;;;15.48;63.60;101664.16;5001449;27;120233;-72
2022/10/07 07:54:57;;;;;;;;;;;;;;;15.58;63.78;101665.69;5006263;27;119938;-72
2022/10/07 07:57:27;;;;;;;;;;;;;;;15.70;63.69;101653.72;5008509;27;119979;-72
2022/10/07 07:59:57;;;;;;;;;;;;;;;15.83;63.48;101657.09;4987873;27;120195;-72
2022/10/07 08:02:23;;;;;;;;;;;;;;;15.93;63.45;101650.31;5007773;27;119486;-73
2022/10/07 08:04:50;;;;;;;;;;;;;;;16.02;63.38;101648.75;5002453;27;119877;-73
2022/10/07 08:07:16;;;;;;;;;;;;;;;16.12;63.11;101658.59;5021992;27;120262;-73
2022/10/07 08:10:02;;;;;;;;;;;;;;;16.19;63.41;101645.19;5001910;27;120274;-73
2022/10/07 08:12:30;;;;;;;;;;;;;;;16.27;63.27;101646.38;5001665;27;119640;-72
2022/10/07 08:14:56;;;;;;;;;;;;;;;16.33;63.21;101643.00;5004112;27;121400;-73
2022/10/07 08:17:23;;;;;;;;;;;;;;;16.38;62.91;101645.91;5004278;27;120204;-73
2022/10/07 08:19:49;;;;;;;;;;;;;;;16.40;62.89;101643.44;5010424;27;119824;-73
2022/10/07 08:22:16;;;;;;;;;;;;;;;16.38;62.67;101643.13;5006761;27;119502;-73
2022/10/07 08:24:44;;;;;;;;;;;;;;;16.38;62.86;101642.38;5022302;27;120181;-73
2022/10/07 08:27:10;;;;;;;;;;;;;;;16.40;62.93;101634.34;5003411;27;119953;-73
2022/10/07 08:29:36;;;;;;;;;;;;;;;16.43;63.07;101638.97;5005786;27;119963;-73
2022/10/07 08:32:04;;;;;;;;;;;;;;;16.45;62.97;101631.72;5002004;27;119951;-73
2022/10/07 08:34:29;;;;;;;;;;;;;;;16.50;62.88;101633.06;5003709;27;119960;-73
2022/10/07 08:36:55;;;;;;;;;;;;;;;16.52;62.77;101628.59;5005696;27;120037;-73
2022/10/07 08:39:23;;;;;;;;;;;;;;;16.58;62.93;101621.19;5008125;27;119949;-73
2022/10/07 08:41:54;;;;;;;;;;;;;;;16.63;63.15;101617.00;5004192;27;119705;-73
2022/10/07 08:44:23;;;;;;;;;;;;;;;16.67;62.75;101606.56;5004802;27;120001;-73
2022/10/07 08:47:11;;;;;;;;;;;;;;;16.72;62.96;101602.38;5005273;27;121539;-73
2022/10/07 08:49:39;;;;;;;;;;;;;;;16.80;63.13;101606.34;5005950;27;119899;-73
2022/10/07 08:52:18;;;;;;;;;;;;;;;16.86;63.07;101610.00;5008781;27;119648;-73
2022/10/07 08:54:43;;;;;;;;;;;;;;;16.90;63.07;101604.25;5005662;27;119930;-72
2022/10/07 08:57:15;;;;;;;;;;;;;;;16.92;62.85;101599.00;5003499;27;119676;-73
2022/10/07 08:59:47;;;;;;;;;;;;;;;16.98;63.11;101597.13;5004821;27;119940;-72
2022/10/07 09:02:13;;;;;;;;;;;;;;;17.02;63.08;101600.47;5007292;27;120990;-72
2022/10/07 09:04:39;;;;;;;;;;;;;;;17.03;63.02;101594.47;5005512;27;119967;-72
2022/10/07 09:07:08;;;;;;;;;;;;;;;17.05;62.86;101594.00;5001235;27;119694;-72
2022/10/07 09:09:50;;;;;;;;;;;;;;;17.08;63.04;101593.81;4987370;28;120220;-72
2022/10/07 09:12:43;;;;;;;;;;;;;;;17.14;63.18;101591.16;5003654;27;119904;-72
2022/10/07 09:15:36;;;;;;;;;;;;;;;17.19;63.20;101588.50;5003327;27;119431;-72
2022/10/07 09:18:16;;;;;;;;;;;;;;;17.26;63.22;101600.44;5003868;27;119588;-72
2022/10/07 09:20:44;;;;;;;;;;;;;;;17.29;63.26;101585.66;5018039;27;119580;-72
2022/10/07 09:23:14;;;;;;;;;;;;;;;17.30;63.26;101573.31;4987817;27;120958;-72
2022/10/07 09:25:40;;;;;;;;;;;;;;;17.31;63.21;101569.31;5007183;27;119492;-72
2022/10/07 09:28:13;;;;;;;;;;;;;;;17.33;63.29;101564.06;5003700;27;120046;-72
2022/10/07 09:30:41;;;;;;;;;;;;;;;17.36;63.09;101568.66;5004801;27;119760;-72
2022/10/07 09:33:14;;;;;;;;;;;;;;;17.36;63.01;101560.31;5005217;27;119595;-72
2022/10/07 09:35:40;;;;;;;;;;;;;;;17.37;63.24;101564.63;5000225;27;121771;-72
2022/10/07 09:38:09;;;;;;;;;;;;;;;17.37;63.42;101556.31;4986384;27;119708;-71
2022/10/07 09:41:13;;;;;;;;;;;;;;;17.39;63.34;101559.38;5004093;27;119489;-72
2022/10/07 09:43:56;;;;;;;;;;;;;;;17.39;63.68;101554.59;5001276;27;120289;-72
2022/10/07 09:46:30;;;;;;;;;;;;;;;17.41;63.84;101548.56;5002795;27;119653;-72
2022/10/07 09:48:57;;;;;;;;;;;;;;;17.43;63.98;101552.38;5008405;27;120445;-72
2022/10/07 09:51:25;;;;;;;;;;;;;;;17.46;64.14;101534.78;5005040;27;120425;-72
2022/10/07 09:53:56;;;;;;;;;;;;;;;17.52;64.03;101543.22;5002058;27;120379;-72
2022/10/07 09:56:31;;;;;;;;;;;;;;;17.56;64.10;101531.94;5003334;27;120357;-72
2022/10/07 09:59:17;;;;;;;;;;;;;;;17.60;64.26;101530.50;5008957;27;120323;-72
2022/10/07 10:01:50;;;;;;;;;;;;;;;17.68;64.19;101519.81;5003760;27;119459;-72
2022/10/07 10:04:17;;;;;;;;;;;;;;;17.72;64.17;101521.13;5003744;27;119592;-72
2022/10/07 10:06:49;;;;;;;;;;;;;;;17.78;63.89;101524.78;5001302;27;120336;-72
2022/10/07 10:09:22;;;;;;;;;;;;;;;17.86;64.01;101527.16;5004102;27;120027;-72
2022/10/07 10:12:09;;;;;;;;;;;;;;;17.93;63.97;101518.44;5006641;27;119613;-72
2022/10/07 10:15:37;;;;;;;;;;;;;;;18.03;63.95;101517.84;4989372;27;120642;-72
2022/10/07 10:18:22;;;;;;;;;;;;;;;18.19;63.76;101522.09;4999406;27;119825;-72
2022/10/07 10:20:48;;;;;;;;;;;;;;;18.27;63.46;101512.13;5004219;27;119767;-72
2022/10/07 10:23:23;;;;;;;;;;;;;;;18.29;63.15;101509.63;5000145;27;119945;-72
2022/10/07 10:28:58;;;;;;;;;;;;;;;18.41;63.02;101510.53;4998692;27;120663;-72
2022/10/07 10:31:39;;;;;;;;;;;;;;;18.46;62.88;101500.78;5016906;27;120523;-72
2022/10/07 10:34:32;;;;;;;;;;;;;;;18.55;63.09;101497.84;4997927;27;119611;-72
2022/10/07 10:37:08;;;;;;;;;;;;;;;18.60;62.48;101506.25;4997916;27;119764;-72
2022/10/07 10:40:00;;;;;;;;;;;;;;;18.66;62.59;101503.56;4981581;28;122105;-72
2022/10/07 10:42:34;;;;;;;;;;;;;;;18.73;62.54;101492.03;4992137;27;120015;-72
2022/10/07 10:45:01;;;;;;;;;;;;;;;18.85;62.32;101490.91;4996604;27;119995;-72
2022/10/07 10:47:45;;;;;;;;;;;;;;;18.98;62.15;101491.31;4999737;27;120329;-72
2022/10/07 10:50:22;;;;;;;;;;;;;;;19.07;61.52;101484.06;4999565;27;119751;-72
2022/10/07 10:52:54;;;;;;;;;;;;;;;19.14;61.46;101481.59;4999718;27;119931;-72
2022/10/07 10:55:32;;;;;;;;;;;;;;;19.19;61.27;101471.81;5002367;27;119531;-72
2022/10/07 10:58:03;;;;;;;;;;;;;;;19.23;61.19;101477.91;5007503;27;119624;-72
2022/10/07 11:00:34;;;;;;;;;;;;;;;19.28;61.08;101466.06;5000768;27;121357;-72
2022/10/07 11:03:32;;;;;;;;;;;;;;;19.31;60.86;101462.28;5006570;27;120114;-72
2022/10/07 11:06:00;;;;;;;;;;;;;;;19.34;60.78;101447.41;5002941;27;120359;-72
2022/10/07 11:08:31;;;;;;;;;;;;;;;19.38;60.69;101453.50;5000756;27;119566;-72
2022/10/07 11:10:58;;;;;;;;;;;;;;;19.41;60.52;101449.75;5003530;27;120207;-72
2022/10/07 11:13:44;;;;;;;;;;;;;;;19.41;60.61;101452.53;5005012;27;119908;-71
2022/10/07 11:16:11;;;;;;;;;;;;;;;19.40;60.47;101447.44;5004202;27;119939;-72
2022/10/07 11:18:40;;;;;;;;;;;;;;;19.39;60.51;101449.47;5002618;27;119552;-72
2022/10/07 11:21:14;;;;;;;;;;;;;;;19.39;60.44;101454.25;5006589;27;119710;-72
2022/10/07 11:23:46;;;;;;;;;;;;;;;19.39;60.03;101443.91;5003590;27;119718;-72
2022/10/07 11:26:11;;;;;;;;;;;;;;;19.35;59.95;101446.13;5005561;27;120002;-72
2022/10/07 11:28:39;;;;;;;;;;;;;;;19.33;60.32;101443.09;5005323;27;120029;-72
2022/10/07 11:31:14;;;;;;;;;;;;;;;19.36;60.38;101430.97;5006553;27;120510;-72
2022/10/07 11:33:48;;;;;;;;;;;;;;;19.38;60.35;101434.03;5007915;27;119542;-72
2022/10/07 11:36:21;;;;;;;;;;;;;;;19.37;60.24;101431.75;5009640;27;120435;-72
2022/10/07 11:38:48;;;;;;;;;;;;;;;19.37;60.49;101432.50;5008319;27;119644;-71
2022/10/07 11:41:18;;;;;;;;;;;;;;;19.47;60.35;101428.28;5007738;27;120540;-72
2022/10/07 11:43:52;;;;;;;;;;;;;;;19.55;59.79;101434.19;5008534;27;121301;-72
2022/10/07 11:46:17;;;;;;;;;;;;;;;19.58;59.79;101428.41;5006129;27;119932;-72
2022/10/07 11:48:59;;;;;;;;;;;;;;;19.62;59.89;101430.94;5006521;27;119546;-71
2022/10/07 11:51:33;;;;;;;;;;;;;;;19.58;59.22;101430.41;5006084;27;119915;-72
2022/10/07 11:54:01;;;;;;;;;;;;;;;19.55;59.32;101423.06;5006870;27;119931;-72
2022/10/07 11:56:31;;;;;;;;;;;;;;;19.54;59.46;101407.63;5002203;27;119744;-72
2022/10/07 11:58:59;;;;;;;;;;;;;;;19.57;59.21;101412.97;5004987;27;120087;-72
2022/10/07 12:01:27;;;;;;;;;;;;;;;19.54;58.93;101407.63;5005526;27;120417;-71
2022/10/07 12:04:14;;;;;;;;;;;;;;;19.51;58.95;101394.69;5006204;27;119715;-71
2022/10/07 12:07:01;;;;;;;;;;;;;;;19.55;59.38;101392.44;4996324;28;119615;-71
2022/10/07 12:09:45;;;;;;;;;;;;;;;19.59;59.37;101393.75;4973551;28;122019;-71
2022/10/07 12:12:12;;;;;;;;;;;;;;;19.60;58.87;101383.38;5000652;27;120022;-71
2022/10/07 12:14:41;;;;;;;;;;;;;;;19.61;59.10;101380.09;5005214;27;119532;-71
2022/10/07 12:17:34;;;;;;;;;;;;;;;19.66;58.96;101383.44;4979032;27;119989;-71
2022/10/07 12:20:26;;;;;;;;;;;;;;;19.70;58.81;101378.38;5002791;27;119637;-71
2022/10/07 12:23:12;;;;;;;;;;;;;;;19.70;58.38;101370.03;4973914;28;119629;-71
2022/10/07 12:25:41;;;;;;;;;;;;;;;19.69;58.82;101372.06;4998664;27;121890;-71
2022/10/07 12:28:33;;;;;;;;;;;;;;;19.73;58.53;101366.25;5004607;27;119908;-71
2022/10/07 12:31:00;;;;;;;;;;;;;;;19.73;58.57;101357.91;5007019;27;119987;-71
2022/10/07 12:33:44;;;;;;;;;;;;;;;19.69;58.45;101363.72;5004717;28;120180;-71
2022/10/07 12:36:28;;;;;;;;;;;;;;;19.66;58.76;101361.16;5005632;27;119330;-71
2022/10/07 12:38:58;;;;;;;;;;;;;;;19.61;58.72;101359.84;5006749;28;119693;-71
2022/10/07 12:41:24;;;;;;;;;;;;;;;19.57;58.65;101356.53;5005134;28;119733;-71
2022/10/07 12:44:05;;;;;;;;;;;;;;;19.53;58.70;101353.19;5006206;28;120385;-71
2022/10/07 12:46:36;;;;;;;;;;;;;;;19.53;59.07;101353.19;5005140;28;119591;-71
2022/10/07 12:49:05;;;;;;;;;;;;;;;19.53;58.99;101354.00;4988387;28;120237;-71
2022/10/07 12:51:37;;;;;;;;;;;;;;;19.57;59.02;101346.16;5005704;28;120364;-71
2022/10/07 12:54:04;;;;;;;;;;;;;;;19.58;58.88;101346.94;5006205;27;120301;-71
2022/10/07 12:56:30;;;;;;;;;;;;;;;19.57;59.00;101340.59;5003756;27;120266;-71
2022/10/07 12:59:53;;;;;;;;;;;;;;;19.54;58.87;101341.59;5023085;27;120029;-71
2022/10/07 13:02:30;;;;;;;;;;;;;;;19.52;58.82;101332.19;5001262;27;119958;-71